sensor_id;sensor_type;location;lat;lon;timestamp;P1;durP1;ratioP1;P2;durP2;ratioP2
71095;SDS011;58753;49.440;11.126;2023-04-07T00:02:18;6.73;;;3.57;;
71095;SDS011;58753;49.440;11.126;2023-04-07T00:04:44;8.27;;;3.67;;
71095;SDS011;58753;49.440;11.126;2023-04-07T00:07:09;7.25;;;3.58;;
71095;SDS011;58753;49.440;11.126;2023-04-07T00:09:35;10.57;;;4.07;;
71095;SDS011;58753;49.440;11.126;2023-04-07T00:12:01;6.50;;;2.83;;
71095;SDS011;58753;49.440;11.126;2023-04-07T00:14:27;7.75;;;3.70;;
71095;SDS011;58753;49.440;11.126;2023-04-07T00:16:52;7.05;;;3.38;;
71095;SDS011;58753;49.440;11.126;2023-04-07T00:19:18;8.10;;;3.70;;
71095;SDS011;58753;49.440;11.126;2023-04-07T00:21:43;10.60;;;3.50;;
71095;SDS011;58753;49.440;11.126;2023-04-07T00:24:08;7.50;;;3.50;;
71095;SDS011;58753;49.440;11.126;2023-04-07T00:26:34;6.87;;;3.23;;
71095;SDS011;58753;49.440;11.126;2023-04-07T00:28:59;6.23;;;3.47;;
71095;SDS011;58753;49.440;11.126;2023-04-07T00:31:25;7.77;;;3.50;;
71095;SDS011;58753;49.440;11.126;2023-04-07T00:33:50;5.60;;;2.80;;
71095;SDS011;58753;49.440;11.126;2023-04-07T00:36:16;8.33;;;3.40;;
71095;SDS011;58753;49.440;11.126;2023-04-07T00:38:41;8.30;;;3.47;;
71095;SDS011;58753;49.440;11.126;2023-04-07T00:41:06;5.20;;;3.10;;
71095;SDS011;58753;49.440;11.126;2023-04-07T00:43:33;7.10;;;3.40;;
71095;SDS011;58753;49.440;11.126;2023-04-07T00:45:58;7.90;;;3.07;;
71095;SDS011;58753;49.440;11.126;2023-04-07T00:48:24;6.50;;;3.78;;
71095;SDS011;58753;49.440;11.126;2023-04-07T00:50:50;9.97;;;4.13;;
71095;SDS011;58753;49.440;11.126;2023-04-07T00:53:15;12.35;;;5.25;;
71095;SDS011;58753;49.440;11.126;2023-04-07T00:55:41;11.27;;;4.27;;
71095;SDS011;58753;49.440;11.126;2023-04-07T00:58:07;9.68;;;4.25;;
71095;SDS011;58753;49.440;11.126;2023-04-07T01:00:34;10.68;;;3.65;;
71095;SDS011;58753;49.440;11.126;2023-04-07T01:03:10;12.53;;;4.23;;
71095;SDS011;58753;49.440;11.126;2023-04-07T01:05:52;9.20;;;3.55;;
71095;SDS011;58753;49.440;11.126;2023-04-07T01:08:25;6.75;;;3.58;;
71095;SDS011;58753;49.440;11.126;2023-04-07T01:11:12;14.13;;;4.13;;
71095;SDS011;58753;49.440;11.126;2023-04-07T01:13:52;7.82;;;3.75;;
71095;SDS011;58753;49.440;11.126;2023-04-07T01:16:23;9.17;;;4.00;;
71095;SDS011;58753;49.440;11.126;2023-04-07T01:18:53;10.27;;;4.18;;
71095;SDS011;58753;49.440;11.126;2023-04-07T01:21:21;8.38;;;4.40;;
71095;SDS011;58753;49.440;11.126;2023-04-07T01:26:27;10.30;;;4.35;;
71095;SDS011;58753;49.440;11.126;2023-04-07T01:29:06;10.30;;;4.20;;
71095;SDS011;58753;49.440;11.126;2023-04-07T01:31:44;10.05;;;4.40;;
71095;SDS011;58753;49.440;11.126;2023-04-07T01:34:12;8.57;;;4.18;;
71095;SDS011;58753;49.440;11.126;2023-04-07T01:36:39;13.10;;;4.50;;
71095;SDS011;58753;49.440;11.126;2023-04-07T01:39:06;13.40;;;5.03;;
71095;SDS011;58753;49.440;11.126;2023-04-07T01:41:32;14.80;;;4.60;;
71095;SDS011;58753;49.440;11.126;2023-04-07T01:43:58;11.43;;;4.97;;
71095;SDS011;58753;49.440;11.126;2023-04-07T01:46:26;12.75;;;5.18;;
71095;SDS011;58753;49.440;11.126;2023-04-07T01:48:51;9.90;;;4.70;;
71095;SDS011;58753;49.440;11.126;2023-04-07T01:51:18;12.35;;;4.40;;
71095;SDS011;58753;49.440;11.126;2023-04-07T01:53:45;9.50;;;3.97;;
71095;SDS011;58753;49.440;11.126;2023-04-07T01:56:12;9.63;;;4.68;;
71095;SDS011;58753;49.440;11.126;2023-04-07T01:58:38;9.63;;;4.23;;
71095;SDS011;58753;49.440;11.126;2023-04-07T02:01:03;7.97;;;4.20;;
71095;SDS011;58753;49.440;11.126;2023-04-07T02:03:30;7.72;;;4.05;;
71095;SDS011;58753;49.440;11.126;2023-04-07T02:06:05;7.53;;;4.13;;
71095;SDS011;58753;49.440;11.126;2023-04-07T02:08:35;9.98;;;4.53;;
71095;SDS011;58753;49.440;11.126;2023-04-07T02:11:02;12.30;;;3.95;;
71095;SDS011;58753;49.440;11.126;2023-04-07T02:13:31;10.25;;;4.63;;
71095;SDS011;58753;49.440;11.126;2023-04-07T02:15:59;10.13;;;5.10;;
71095;SDS011;58753;49.440;11.126;2023-04-07T02:18:26;7.70;;;3.97;;
71095;SDS011;58753;49.440;11.126;2023-04-07T02:20:53;11.70;;;4.95;;
71095;SDS011;58753;49.440;11.126;2023-04-07T02:23:20;13.73;;;4.93;;
71095;SDS011;58753;49.440;11.126;2023-04-07T02:25:45;10.47;;;4.87;;
71095;SDS011;58753;49.440;11.126;2023-04-07T02:28:11;11.02;;;5.43;;
71095;SDS011;58753;49.440;11.126;2023-04-07T02:30:36;8.70;;;4.87;;
71095;SDS011;58753;49.440;11.126;2023-04-07T02:33:01;10.13;;;4.83;;
71095;SDS011;58753;49.440;11.126;2023-04-07T02:35:27;12.93;;;5.20;;
71095;SDS011;58753;49.440;11.126;2023-04-07T02:37:52;10.45;;;4.88;;
71095;SDS011;58753;49.440;11.126;2023-04-07T02:40:18;8.53;;;4.67;;
71095;SDS011;58753;49.440;11.126;2023-04-07T02:42:43;12.53;;;5.33;;
71095;SDS011;58753;49.440;11.126;2023-04-07T02:45:10;10.65;;;5.15;;
71095;SDS011;58753;49.440;11.126;2023-04-07T02:47:36;8.02;;;4.97;;
71095;SDS011;58753;49.440;11.126;2023-04-07T02:50:02;9.90;;;4.63;;
71095;SDS011;58753;49.440;11.126;2023-04-07T02:52:28;10.85;;;4.85;;
71095;SDS011;58753;49.440;11.126;2023-04-07T02:54:53;9.57;;;5.23;;
71095;SDS011;58753;49.440;11.126;2023-04-07T02:57:19;9.70;;;5.47;;
71095;SDS011;58753;49.440;11.126;2023-04-07T02:59:44;11.02;;;5.72;;
71095;SDS011;58753;49.440;11.126;2023-04-07T03:02:10;10.23;;;4.93;;
71095;SDS011;58753;49.440;11.126;2023-04-07T03:04:35;8.63;;;4.63;;
71095;SDS011;58753;49.440;11.126;2023-04-07T03:07:01;10.73;;;5.47;;
71095;SDS011;58753;49.440;11.126;2023-04-07T03:09:26;12.43;;;5.37;;
71095;SDS011;58753;49.440;11.126;2023-04-07T03:11:51;11.03;;;5.60;;
71095;SDS011;58753;49.440;11.126;2023-04-07T03:14:17;10.02;;;4.88;;
71095;SDS011;58753;49.440;11.126;2023-04-07T03:16:42;9.47;;;5.00;;
71095;SDS011;58753;49.440;11.126;2023-04-07T03:19:08;11.07;;;5.53;;
71095;SDS011;58753;49.440;11.126;2023-04-07T03:21:35;11.50;;;5.43;;
71095;SDS011;58753;49.440;11.126;2023-04-07T03:24:02;9.45;;;5.15;;
71095;SDS011;58753;49.440;11.126;2023-04-07T03:26:27;11.40;;;6.03;;
71095;SDS011;58753;49.440;11.126;2023-04-07T03:28:52;10.60;;;5.50;;
71095;SDS011;58753;49.440;11.126;2023-04-07T03:31:18;9.90;;;5.15;;
71095;SDS011;58753;49.440;11.126;2023-04-07T03:33:43;8.93;;;4.63;;
71095;SDS011;58753;49.440;11.126;2023-04-07T03:36:08;8.87;;;4.73;;
71095;SDS011;58753;49.440;11.126;2023-04-07T03:38:34;9.30;;;5.10;;
71095;SDS011;58753;49.440;11.126;2023-04-07T03:40:59;10.13;;;5.20;;
71095;SDS011;58753;49.440;11.126;2023-04-07T03:43:25;13.57;;;6.20;;
71095;SDS011;58753;49.440;11.126;2023-04-07T03:45:54;12.23;;;5.57;;
71095;SDS011;58753;49.440;11.126;2023-04-07T03:48:19;13.25;;;5.82;;
71095;SDS011;58753;49.440;11.126;2023-04-07T03:50:45;11.90;;;5.57;;
71095;SDS011;58753;49.440;11.126;2023-04-07T03:53:11;12.40;;;5.03;;
71095;SDS011;58753;49.440;11.126;2023-04-07T03:55:39;10.95;;;4.80;;
71095;SDS011;58753;49.440;11.126;2023-04-07T03:58:04;12.03;;;5.60;;
71095;SDS011;58753;49.440;11.126;2023-04-07T04:00:30;11.82;;;5.85;;
71095;SDS011;58753;49.440;11.126;2023-04-07T04:02:57;11.53;;;5.03;;
71095;SDS011;58753;49.440;11.126;2023-04-07T04:05:23;11.93;;;5.95;;
71095;SDS011;58753;49.440;11.126;2023-04-07T04:07:48;10.50;;;4.90;;
71095;SDS011;58753;49.440;11.126;2023-04-07T04:10:15;7.40;;;4.03;;
71095;SDS011;58753;49.440;11.126;2023-04-07T04:12:40;11.60;;;4.77;;
71095;SDS011;58753;49.440;11.126;2023-04-07T04:15:06;8.17;;;4.23;;
71095;SDS011;58753;49.440;11.126;2023-04-07T04:17:31;8.10;;;3.97;;
71095;SDS011;58753;49.440;11.126;2023-04-07T04:19:57;7.90;;;4.23;;
71095;SDS011;58753;49.440;11.126;2023-04-07T04:22:22;9.73;;;4.78;;
71095;SDS011;58753;49.440;11.126;2023-04-07T04:24:48;10.70;;;5.33;;
71095;SDS011;58753;49.440;11.126;2023-04-07T04:27:13;9.47;;;4.87;;
71095;SDS011;58753;49.440;11.126;2023-04-07T04:29:38;9.03;;;4.77;;
71095;SDS011;58753;49.440;11.126;2023-04-07T04:32:04;8.32;;;4.68;;
71095;SDS011;58753;49.440;11.126;2023-04-07T04:34:30;11.17;;;4.63;;
71095;SDS011;58753;49.440;11.126;2023-04-07T04:36:55;12.13;;;5.23;;
71095;SDS011;58753;49.440;11.126;2023-04-07T04:39:20;8.57;;;4.13;;
71095;SDS011;58753;49.440;11.126;2023-04-07T04:41:46;7.27;;;4.23;;
71095;SDS011;58753;49.440;11.126;2023-04-07T04:44:11;8.77;;;4.60;;
71095;SDS011;58753;49.440;11.126;2023-04-07T04:46:36;12.03;;;5.03;;
71095;SDS011;58753;49.440;11.126;2023-04-07T04:49:02;11.07;;;5.00;;
71095;SDS011;58753;49.440;11.126;2023-04-07T04:51:27;10.37;;;4.87;;
71095;SDS011;58753;49.440;11.126;2023-04-07T04:53:53;9.25;;;4.90;;
71095;SDS011;58753;49.440;11.126;2023-04-07T04:56:18;10.20;;;5.10;;
71095;SDS011;58753;49.440;11.126;2023-04-07T04:58:43;9.30;;;5.80;;
71095;SDS011;58753;49.440;11.126;2023-04-07T05:01:13;7.72;;;4.47;;
71095;SDS011;58753;49.440;11.126;2023-04-07T05:03:38;11.57;;;5.25;;
71095;SDS011;58753;49.440;11.126;2023-04-07T05:06:04;9.23;;;4.70;;
71095;SDS011;58753;49.440;11.126;2023-04-07T05:08:30;9.20;;;4.90;;
71095;SDS011;58753;49.440;11.126;2023-04-07T05:10:55;9.70;;;5.17;;
71095;SDS011;58753;49.440;11.126;2023-04-07T05:13:21;9.33;;;5.10;;
71095;SDS011;58753;49.440;11.126;2023-04-07T05:15:46;10.23;;;5.05;;
71095;SDS011;58753;49.440;11.126;2023-04-07T05:18:12;10.97;;;5.30;;
71095;SDS011;58753;49.440;11.126;2023-04-07T05:20:37;9.87;;;5.43;;
71095;SDS011;58753;49.440;11.126;2023-04-07T05:23:03;17.03;;;5.73;;
71095;SDS011;58753;49.440;11.126;2023-04-07T05:25:28;9.85;;;4.93;;
71095;SDS011;58753;49.440;11.126;2023-04-07T05:27:53;10.77;;;5.70;;
71095;SDS011;58753;49.440;11.126;2023-04-07T05:30:19;9.85;;;5.45;;
71095;SDS011;58753;49.440;11.126;2023-04-07T05:32:45;12.73;;;5.53;;
71095;SDS011;58753;49.440;11.126;2023-04-07T05:35:10;9.93;;;5.70;;
71095;SDS011;58753;49.440;11.126;2023-04-07T05:37:36;12.07;;;6.03;;
71095;SDS011;58753;49.440;11.126;2023-04-07T05:40:01;11.43;;;6.33;;
71095;SDS011;58753;49.440;11.126;2023-04-07T05:42:27;12.23;;;5.47;;
71095;SDS011;58753;49.440;11.126;2023-04-07T05:44:52;8.97;;;5.93;;
71095;SDS011;58753;49.440;11.126;2023-04-07T05:47:17;14.50;;;6.70;;
71095;SDS011;58753;49.440;11.126;2023-04-07T05:49:43;12.27;;;5.93;;
71095;SDS011;58753;49.440;11.126;2023-04-07T05:52:11;15.68;;;5.90;;
71095;SDS011;58753;49.440;11.126;2023-04-07T05:54:37;14.97;;;6.10;;
71095;SDS011;58753;49.440;11.126;2023-04-07T05:57:04;10.63;;;6.25;;
71095;SDS011;58753;49.440;11.126;2023-04-07T05:59:30;11.30;;;5.88;;
71095;SDS011;58753;49.440;11.126;2023-04-07T06:01:56;11.30;;;6.07;;
71095;SDS011;58753;49.440;11.126;2023-04-07T06:04:21;13.23;;;6.50;;
71095;SDS011;58753;49.440;11.126;2023-04-07T06:06:46;14.43;;;6.03;;
71095;SDS011;58753;49.440;11.126;2023-04-07T06:09:12;10.70;;;6.13;;
71095;SDS011;58753;49.440;11.126;2023-04-07T06:11:37;11.30;;;6.27;;
71095;SDS011;58753;49.440;11.126;2023-04-07T06:14:02;9.70;;;5.80;;
71095;SDS011;58753;49.440;11.126;2023-04-07T06:16:28;12.60;;;5.67;;
71095;SDS011;58753;49.440;11.126;2023-04-07T06:18:53;14.17;;;6.17;;
71095;SDS011;58753;49.440;11.126;2023-04-07T06:21:18;11.43;;;6.77;;
71095;SDS011;58753;49.440;11.126;2023-04-07T06:23:44;12.73;;;6.40;;
71095;SDS011;58753;49.440;11.126;2023-04-07T06:26:10;15.63;;;7.00;;
71095;SDS011;58753;49.440;11.126;2023-04-07T06:28:38;12.43;;;6.20;;
71095;SDS011;58753;49.440;11.126;2023-04-07T06:31:04;10.20;;;6.15;;
71095;SDS011;58753;49.440;11.126;2023-04-07T06:33:30;11.60;;;6.30;;
71095;SDS011;58753;49.440;11.126;2023-04-07T06:35:55;16.27;;;6.10;;
71095;SDS011;58753;49.440;11.126;2023-04-07T06:38:21;12.23;;;6.73;;
71095;SDS011;58753;49.440;11.126;2023-04-07T06:40:47;8.98;;;5.43;;
71095;SDS011;58753;49.440;11.126;2023-04-07T06:43:12;11.33;;;6.07;;
71095;SDS011;58753;49.440;11.126;2023-04-07T06:45:37;11.63;;;6.70;;
71095;SDS011;58753;49.440;11.126;2023-04-07T06:48:03;11.50;;;6.90;;
71095;SDS011;58753;49.440;11.126;2023-04-07T06:50:28;10.60;;;6.05;;
71095;SDS011;58753;49.440;11.126;2023-04-07T06:52:54;14.27;;;7.00;;
71095;SDS011;58753;49.440;11.126;2023-04-07T06:55:19;13.83;;;7.23;;
71095;SDS011;58753;49.440;11.126;2023-04-07T06:57:45;13.50;;;7.13;;
71095;SDS011;58753;49.440;11.126;2023-04-07T07:00:10;13.73;;;5.97;;
71095;SDS011;58753;49.440;11.126;2023-04-07T07:02:36;11.63;;;6.17;;
71095;SDS011;58753;49.440;11.126;2023-04-07T07:05:01;12.50;;;7.20;;
71095;SDS011;58753;49.440;11.126;2023-04-07T07:07:28;13.20;;;6.67;;
71095;SDS011;58753;49.440;11.126;2023-04-07T07:09:54;14.25;;;7.13;;
71095;SDS011;58753;49.440;11.126;2023-04-07T07:12:20;14.63;;;7.82;;
71095;SDS011;58753;49.440;11.126;2023-04-07T07:14:45;16.67;;;7.53;;
71095;SDS011;58753;49.440;11.126;2023-04-07T07:17:10;13.57;;;6.60;;
71095;SDS011;58753;49.440;11.126;2023-04-07T07:19:36;15.50;;;7.40;;
71095;SDS011;58753;49.440;11.126;2023-04-07T07:22:01;12.53;;;6.77;;
71095;SDS011;58753;49.440;11.126;2023-04-07T07:24:28;14.18;;;6.82;;
71095;SDS011;58753;49.440;11.126;2023-04-07T07:26:54;14.38;;;6.97;;
71095;SDS011;58753;49.440;11.126;2023-04-07T07:29:20;14.65;;;7.93;;
71095;SDS011;58753;49.440;11.126;2023-04-07T07:31:46;15.00;;;7.37;;
71095;SDS011;58753;49.440;11.126;2023-04-07T07:34:11;13.87;;;7.03;;
71095;SDS011;58753;49.440;11.126;2023-04-07T07:36:36;13.90;;;6.47;;
71095;SDS011;58753;49.440;11.126;2023-04-07T07:39:02;16.17;;;6.47;;
71095;SDS011;58753;49.440;11.126;2023-04-07T07:41:32;16.63;;;9.32;;
71095;SDS011;58753;49.440;11.126;2023-04-07T07:44:04;14.20;;;7.43;;
71095;SDS011;58753;49.440;11.126;2023-04-07T07:46:29;16.98;;;7.80;;
71095;SDS011;58753;49.440;11.126;2023-04-07T07:48:54;13.10;;;6.80;;
71095;SDS011;58753;49.440;11.126;2023-04-07T07:51:20;12.87;;;6.80;;
71095;SDS011;58753;49.440;11.126;2023-04-07T07:53:45;13.38;;;7.28;;
71095;SDS011;58753;49.440;11.126;2023-04-07T07:56:11;13.20;;;6.87;;
71095;SDS011;58753;49.440;11.126;2023-04-07T07:58:37;15.35;;;7.57;;
71095;SDS011;58753;49.440;11.126;2023-04-07T08:01:02;15.00;;;6.50;;
71095;SDS011;58753;49.440;11.126;2023-04-07T08:03:28;13.97;;;7.10;;
71095;SDS011;58753;49.440;11.126;2023-04-07T08:05:53;12.33;;;6.10;;
71095;SDS011;58753;49.440;11.126;2023-04-07T08:08:19;13.90;;;7.25;;
71095;SDS011;58753;49.440;11.126;2023-04-07T08:10:44;15.03;;;6.97;;
71095;SDS011;58753;49.440;11.126;2023-04-07T08:13:09;14.90;;;7.57;;
71095;SDS011;58753;49.440;11.126;2023-04-07T08:15:35;13.93;;;6.67;;
71095;SDS011;58753;49.440;11.126;2023-04-07T08:18:00;13.60;;;6.00;;
71095;SDS011;58753;49.440;11.126;2023-04-07T08:20:28;16.13;;;6.70;;
71095;SDS011;58753;49.440;11.126;2023-04-07T08:22:54;10.30;;;5.45;;
71095;SDS011;58753;49.440;11.126;2023-04-07T08:25:20;16.93;;;7.27;;
71095;SDS011;58753;49.440;11.126;2023-04-07T08:27:45;13.33;;;6.67;;
71095;SDS011;58753;49.440;11.126;2023-04-07T08:30:10;12.03;;;5.80;;
71095;SDS011;58753;49.440;11.126;2023-04-07T08:32:37;12.33;;;6.13;;
71095;SDS011;58753;49.440;11.126;2023-04-07T08:35:04;12.10;;;5.65;;
71095;SDS011;58753;49.440;11.126;2023-04-07T08:37:30;11.38;;;5.63;;
71095;SDS011;58753;49.440;11.126;2023-04-07T08:39:55;15.50;;;7.38;;
71095;SDS011;58753;49.440;11.126;2023-04-07T08:42:21;10.83;;;5.43;;
71095;SDS011;58753;49.440;11.126;2023-04-07T08:44:51;12.95;;;6.68;;
71095;SDS011;58753;49.440;11.126;2023-04-07T08:47:18;13.83;;;6.77;;
71095;SDS011;58753;49.440;11.126;2023-04-07T08:49:44;13.50;;;6.72;;
71095;SDS011;58753;49.440;11.126;2023-04-07T08:52:15;15.75;;;7.57;;
71095;SDS011;58753;49.440;11.126;2023-04-07T08:54:46;12.38;;;6.60;;
71095;SDS011;58753;49.440;11.126;2023-04-07T08:57:12;12.67;;;5.83;;
71095;SDS011;58753;49.440;11.126;2023-04-07T08:59:39;12.15;;;5.97;;
71095;SDS011;58753;49.440;11.126;2023-04-07T09:02:08;10.88;;;6.10;;
71095;SDS011;58753;49.440;11.126;2023-04-07T09:04:34;11.53;;;6.13;;
71095;SDS011;58753;49.440;11.126;2023-04-07T09:06:59;12.63;;;6.63;;
71095;SDS011;58753;49.440;11.126;2023-04-07T09:09:26;11.93;;;6.32;;
71095;SDS011;58753;49.440;11.126;2023-04-07T09:11:51;11.17;;;6.80;;
71095;SDS011;58753;49.440;11.126;2023-04-07T09:14:17;12.60;;;6.20;;
71095;SDS011;58753;49.440;11.126;2023-04-07T09:16:44;15.75;;;7.22;;
71095;SDS011;58753;49.440;11.126;2023-04-07T09:19:10;17.40;;;7.17;;
71095;SDS011;58753;49.440;11.126;2023-04-07T09:21:51;11.93;;;6.35;;
71095;SDS011;58753;49.440;11.126;2023-04-07T09:24:24;12.77;;;7.00;;
71095;SDS011;58753;49.440;11.126;2023-04-07T09:27:07;14.95;;;7.15;;
71095;SDS011;58753;49.440;11.126;2023-04-07T09:29:43;14.10;;;6.97;;
71095;SDS011;58753;49.440;11.126;2023-04-07T09:32:10;11.88;;;7.05;;
71095;SDS011;58753;49.440;11.126;2023-04-07T09:34:39;12.00;;;6.38;;
71095;SDS011;58753;49.440;11.126;2023-04-07T09:37:05;15.80;;;6.30;;
71095;SDS011;58753;49.440;11.126;2023-04-07T09:39:33;11.02;;;6.47;;
71095;SDS011;58753;49.440;11.126;2023-04-07T09:42:12;10.88;;;6.20;;
71095;SDS011;58753;49.440;11.126;2023-04-07T09:44:38;13.20;;;6.63;;
71095;SDS011;58753;49.440;11.126;2023-04-07T09:47:05;13.82;;;6.40;;
71095;SDS011;58753;49.440;11.126;2023-04-07T09:49:31;18.10;;;7.93;;
71095;SDS011;58753;49.440;11.126;2023-04-07T09:51:57;13.90;;;7.17;;
71095;SDS011;58753;49.440;11.126;2023-04-07T09:54:37;19.55;;;7.25;;
71095;SDS011;58753;49.440;11.126;2023-04-07T09:57:09;12.60;;;6.60;;
71095;SDS011;58753;49.440;11.126;2023-04-07T09:59:36;12.30;;;6.95;;
71095;SDS011;58753;49.440;11.126;2023-04-07T10:02:03;11.30;;;6.57;;
71095;SDS011;58753;49.440;11.126;2023-04-07T10:04:30;12.68;;;7.15;;
71095;SDS011;58753;49.440;11.126;2023-04-07T10:06:56;11.82;;;6.80;;
71095;SDS011;58753;49.440;11.126;2023-04-07T10:09:23;12.43;;;6.57;;
71095;SDS011;58753;49.440;11.126;2023-04-07T10:11:50;15.63;;;7.35;;
71095;SDS011;58753;49.440;11.126;2023-04-07T10:14:17;13.32;;;6.82;;
71095;SDS011;58753;49.440;11.126;2023-04-07T10:16:43;10.00;;;4.90;;
71095;SDS011;58753;49.440;11.126;2023-04-07T10:19:10;17.63;;;6.95;;
71095;SDS011;58753;49.440;11.126;2023-04-07T10:21:38;12.27;;;6.43;;
71095;SDS011;58753;49.440;11.126;2023-04-07T10:27:02;14.57;;;6.68;;
71095;SDS011;58753;49.440;11.126;2023-04-07T10:29:36;11.95;;;6.53;;
71095;SDS011;58753;49.440;11.126;2023-04-07T10:32:05;12.60;;;6.60;;
71095;SDS011;58753;49.440;11.126;2023-04-07T10:34:54;10.90;;;6.20;;
71095;SDS011;58753;49.440;11.126;2023-04-07T10:37:22;15.65;;;6.78;;
71095;SDS011;58753;49.440;11.126;2023-04-07T10:39:49;13.57;;;5.80;;
71095;SDS011;58753;49.440;11.126;2023-04-07T10:45:07;13.40;;;7.30;;
71095;SDS011;58753;49.440;11.126;2023-04-07T10:48:19;14.70;;;6.63;;
71095;SDS011;58753;49.440;11.126;2023-04-07T10:50:22;15.18;;;7.28;;
71095;SDS011;58753;49.440;11.126;2023-04-07T10:53:01;12.88;;;7.13;;
71095;SDS011;58753;49.440;11.126;2023-04-07T10:55:33;11.35;;;6.55;;
71095;SDS011;58753;49.440;11.126;2023-04-07T11:03:24;13.02;;;7.35;;
71095;SDS011;58753;49.440;11.126;2023-04-07T11:05:50;10.95;;;6.50;;
71095;SDS011;58753;49.440;11.126;2023-04-07T11:08:37;11.83;;;7.03;;
71095;SDS011;58753;49.440;11.126;2023-04-07T11:11:04;11.77;;;7.18;;
71095;SDS011;58753;49.440;11.126;2023-04-07T11:16:06;11.60;;;6.93;;
71095;SDS011;58753;49.440;11.126;2023-04-07T11:18:32;13.77;;;8.03;;
71095;SDS011;58753;49.440;11.126;2023-04-07T11:20:59;10.83;;;7.80;;
71095;SDS011;58753;49.440;11.126;2023-04-07T11:23:24;12.88;;;7.18;;
71095;SDS011;58753;49.440;11.126;2023-04-07T11:25:52;11.40;;;7.22;;
71095;SDS011;58753;49.440;11.126;2023-04-07T11:28:25;11.90;;;6.90;;
71095;SDS011;58753;49.440;11.126;2023-04-07T11:30:51;11.80;;;7.77;;
71095;SDS011;58753;49.440;11.126;2023-04-07T11:33:22;12.45;;;8.40;;
71095;SDS011;58753;49.440;11.126;2023-04-07T11:35:56;12.95;;;7.90;;
71095;SDS011;58753;49.440;11.126;2023-04-07T11:38:24;12.57;;;8.10;;
71095;SDS011;58753;49.440;11.126;2023-04-07T11:40:51;9.93;;;7.00;;
71095;SDS011;58753;49.440;11.126;2023-04-07T11:43:19;12.50;;;7.20;;
71095;SDS011;58753;49.440;11.126;2023-04-07T11:45:45;11.67;;;7.20;;
71095;SDS011;58753;49.440;11.126;2023-04-07T11:48:29;13.80;;;8.65;;
71095;SDS011;58753;49.440;11.126;2023-04-07T11:50:56;10.98;;;6.82;;
71095;SDS011;58753;49.440;11.126;2023-04-07T11:53:28;12.32;;;7.13;;
71095;SDS011;58753;49.440;11.126;2023-04-07T11:58:24;11.93;;;8.13;;
71095;SDS011;58753;49.440;11.126;2023-04-07T12:01:00;13.05;;;7.00;;
71095;SDS011;58753;49.440;11.126;2023-04-07T12:03:33;13.25;;;7.03;;
71095;SDS011;58753;49.440;11.126;2023-04-07T12:06:00;11.93;;;7.40;;
71095;SDS011;58753;49.440;11.126;2023-04-07T12:08:35;11.23;;;6.68;;
71095;SDS011;58753;49.440;11.126;2023-04-07T12:11:02;13.02;;;7.68;;
71095;SDS011;58753;49.440;11.126;2023-04-07T12:13:30;15.35;;;7.88;;
71095;SDS011;58753;49.440;11.126;2023-04-07T12:15:57;12.13;;;8.07;;
71095;SDS011;58753;49.440;11.126;2023-04-07T12:18:23;12.93;;;8.00;;
71095;SDS011;58753;49.440;11.126;2023-04-07T12:20:49;12.07;;;7.68;;
71095;SDS011;58753;49.440;11.126;2023-04-07T12:23:15;11.85;;;7.80;;
71095;SDS011;58753;49.440;11.126;2023-04-07T12:25:40;12.20;;;7.60;;
71095;SDS011;58753;49.440;11.126;2023-04-07T12:28:06;14.73;;;8.43;;
71095;SDS011;58753;49.440;11.126;2023-04-07T12:30:31;11.87;;;7.17;;
71095;SDS011;58753;49.440;11.126;2023-04-07T12:32:57;15.17;;;7.10;;
71095;SDS011;58753;49.440;11.126;2023-04-07T12:35:22;11.30;;;7.40;;
71095;SDS011;58753;49.440;11.126;2023-04-07T12:37:48;14.00;;;8.30;;
71095;SDS011;58753;49.440;11.126;2023-04-07T12:40:13;15.10;;;7.90;;
71095;SDS011;58753;49.440;11.126;2023-04-07T12:42:40;14.27;;;7.90;;
71095;SDS011;58753;49.440;11.126;2023-04-07T12:45:06;12.73;;;7.60;;
71095;SDS011;58753;49.440;11.126;2023-04-07T12:47:32;12.73;;;7.73;;
71095;SDS011;58753;49.440;11.126;2023-04-07T12:49:58;9.23;;;6.18;;
71095;SDS011;58753;49.440;11.126;2023-04-07T12:52:23;13.40;;;8.77;;
71095;SDS011;58753;49.440;11.126;2023-04-07T12:54:49;13.95;;;8.75;;
71095;SDS011;58753;49.440;11.126;2023-04-07T12:57:15;13.73;;;7.77;;
71095;SDS011;58753;49.440;11.126;2023-04-07T12:59:40;12.82;;;8.50;;
71095;SDS011;58753;49.440;11.126;2023-04-07T13:02:06;13.40;;;8.60;;
71095;SDS011;58753;49.440;11.126;2023-04-07T13:04:32;14.00;;;7.63;;
71095;SDS011;58753;49.440;11.126;2023-04-07T13:06:58;11.27;;;7.40;;
71095;SDS011;58753;49.440;11.126;2023-04-07T13:09:26;11.80;;;7.20;;
71095;SDS011;58753;49.440;11.126;2023-04-07T13:11:52;15.07;;;7.37;;
71095;SDS011;58753;49.440;11.126;2023-04-07T13:14:17;15.37;;;8.43;;
71095;SDS011;58753;49.440;11.126;2023-04-07T13:16:43;12.43;;;7.88;;
71095;SDS011;58753;49.440;11.126;2023-04-07T13:19:08;13.73;;;8.47;;
71095;SDS011;58753;49.440;11.126;2023-04-07T13:21:34;13.93;;;7.53;;
71095;SDS011;58753;49.440;11.126;2023-04-07T13:23:59;14.18;;;7.85;;
71095;SDS011;58753;49.440;11.126;2023-04-07T13:26:25;11.63;;;7.17;;
71095;SDS011;58753;49.440;11.126;2023-04-07T13:28:52;11.32;;;7.68;;
71095;SDS011;58753;49.440;11.126;2023-04-07T13:31:17;12.40;;;7.60;;
71095;SDS011;58753;49.440;11.126;2023-04-07T13:33:43;12.73;;;7.93;;
71095;SDS011;58753;49.440;11.126;2023-04-07T13:36:09;11.07;;;8.03;;
71095;SDS011;58753;49.440;11.126;2023-04-07T13:38:34;14.00;;;7.72;;
71095;SDS011;58753;49.440;11.126;2023-04-07T13:41:01;13.13;;;7.50;;
71095;SDS011;58753;49.440;11.126;2023-04-07T13:43:27;14.18;;;8.32;;
71095;SDS011;58753;49.440;11.126;2023-04-07T13:45:53;12.33;;;7.63;;
71095;SDS011;58753;49.440;11.126;2023-04-07T13:48:20;12.93;;;7.70;;
71095;SDS011;58753;49.440;11.126;2023-04-07T13:50:45;11.23;;;7.60;;
71095;SDS011;58753;49.440;11.126;2023-04-07T13:53:11;12.68;;;7.53;;
71095;SDS011;58753;49.440;11.126;2023-04-07T13:55:36;11.53;;;7.70;;
71095;SDS011;58753;49.440;11.126;2023-04-07T13:58:02;14.80;;;7.35;;
71095;SDS011;58753;49.440;11.126;2023-04-07T14:00:27;12.63;;;7.40;;
71095;SDS011;58753;49.440;11.126;2023-04-07T14:02:53;11.90;;;8.03;;
71095;SDS011;58753;49.440;11.126;2023-04-07T14:05:19;11.95;;;7.43;;
71095;SDS011;58753;49.440;11.126;2023-04-07T14:07:45;12.43;;;7.80;;
71095;SDS011;58753;49.440;11.126;2023-04-07T14:10:11;11.25;;;7.55;;
71095;SDS011;58753;49.440;11.126;2023-04-07T14:12:36;14.57;;;7.90;;
71095;SDS011;58753;49.440;11.126;2023-04-07T14:15:02;16.77;;;7.90;;
71095;SDS011;58753;49.440;11.126;2023-04-07T14:17:28;11.13;;;7.72;;
71095;SDS011;58753;49.440;11.126;2023-04-07T14:19:53;10.05;;;7.00;;
71095;SDS011;58753;49.440;11.126;2023-04-07T14:22:19;10.33;;;5.87;;
71095;SDS011;58753;49.440;11.126;2023-04-07T14:24:44;11.20;;;6.53;;
71095;SDS011;58753;49.440;11.126;2023-04-07T14:27:10;12.82;;;6.80;;
71095;SDS011;58753;49.440;11.126;2023-04-07T14:29:35;11.20;;;7.37;;
71095;SDS011;58753;49.440;11.126;2023-04-07T14:32:01;10.63;;;7.15;;
71095;SDS011;58753;49.440;11.126;2023-04-07T14:34:27;11.50;;;7.30;;
71095;SDS011;58753;49.440;11.126;2023-04-07T14:36:53;11.32;;;7.18;;
71095;SDS011;58753;49.440;11.126;2023-04-07T14:39:20;10.87;;;7.83;;
71095;SDS011;58753;49.440;11.126;2023-04-07T14:41:46;10.93;;;6.93;;